Time;durP1;ratioP1;P1;durP2;ratioP2;P2;SDS_P1;SDS_P2;PMS_P1;PMS_P2;Temp;Humidity;BMP_temperature;BMP_pressure;BME280_temperature;BME280_humidity;BME280_pressure;Samples;Min_cycle;Max_cycle;Signal;HPM_P1;HPM_P2
2024/04/10 00:00:33;;;;;;;4.85;1.63;;;;;;;7.93;68.11;101059.66;2701269;26;20451;-76
2024/04/10 00:01:48;;;;;;;2.78;1.42;;;;;;;7.90;67.95;101057.88;2696433;26;20005;-76
2024/04/10 00:03:05;;;;;;;5.72;1.60;;;;;;;7.87;67.98;101055.25;2695438;26;19998;-76
2024/04/10 00:04:18;;;;;;;4.88;2.17;;;;;;;7.84;68.25;101060.41;2709427;26;20363;-76
2024/04/10 00:05:31;;;;;;;2.22;1.42;;;;;;;7.82;68.33;101057.81;2713117;26;20000;-76
2024/04/10 00:06:45;;;;;;;4.15;1.67;;;;;;;7.79;68.29;101056.91;2712868;26;20000;-76
2024/04/10 00:07:58;;;;;;;4.88;2.63;;;;;;;7.77;68.34;101054.31;2700999;26;20036;-76
2024/04/10 00:09:12;;;;;;;4.35;1.98;;;;;;;7.74;68.52;101063.78;2714373;26;19996;-76
2024/04/10 00:10:25;;;;;;;6.25;1.98;;;;;;;7.71;68.83;101058.56;2727600;26;20766;-76
2024/04/10 00:11:38;;;;;;;4.97;2.03;;;;;;;7.69;68.91;101055.94;2716739;26;20788;-76
2024/04/10 00:12:53;;;;;;;2.97;1.80;;;;;;;7.68;69.03;101058.53;2712144;26;20822;-76
2024/04/10 00:14:06;;;;;;;5.00;1.77;;;;;;;7.65;69.22;101065.44;2687485;26;20075;-76
2024/04/10 00:15:19;;;;;;;2.92;1.50;;;;;;;7.65;69.06;101056.78;2710120;26;20387;-76
2024/04/10 00:16:33;;;;;;;6.03;1.65;;;;;;;7.64;69.22;101062.81;2695876;26;20000;-76
2024/04/10 00:17:46;;;;;;;10.57;2.13;;;;;;;7.63;69.28;101067.16;2696783;26;19997;-76
2024/04/10 00:18:59;;;;;;;4.05;1.95;;;;;;;7.61;69.23;101068.84;2686000;26;20001;-76
2024/04/10 00:20:12;;;;;;;9.73;1.77;;;;;;;7.61;69.05;101073.19;2691892;26;20014;-76
2024/04/10 00:21:30;;;;;;;7.45;1.70;;;;;;;7.59;69.26;101075.78;2701477;26;20012;-76
2024/04/10 00:22:43;;;;;;;4.30;1.70;;;;;;;7.58;69.39;101074.00;2706743;26;20016;-76
2024/04/10 00:23:56;;;;;;;8.98;3.08;;;;;;;7.57;69.59;101080.09;2689433;26;20001;-77
2024/04/10 00:25:10;;;;;;;6.63;2.92;;;;;;;7.57;69.86;101093.06;2694289;26;20005;-77
2024/04/10 00:26:23;;;;;;;2.10;1.60;;;;;;;7.55;69.76;101094.75;2700874;26;20006;-78
2024/04/10 00:27:36;;;;;;;5.72;2.40;;;;;;;7.55;69.92;101093.91;2700014;26;20000;-77
2024/04/10 00:28:49;;;;;;;3.47;1.70;;;;;;;7.54;70.13;101095.63;2689205;26;20027;-77
2024/04/10 00:30:03;;;;;;;2.25;2.05;;;;;;;7.53;69.96;101096.47;2690337;26;19997;-77
2024/04/10 00:31:16;;;;;;;4.55;2.42;;;;;;;7.51;69.91;101106.00;2712355;26;20602;-77
2024/04/10 00:32:30;;;;;;;4.93;2.22;;;;;;;7.50;70.08;101101.63;2701347;26;20004;-77
2024/04/10 00:33:44;;;;;;;7.63;1.55;;;;;;;7.49;70.44;101109.44;2715943;26;20731;-77
2024/04/10 00:34:57;;;;;;;11.80;2.53;;;;;;;7.48;70.33;101112.88;2703137;26;20400;-77
2024/04/10 00:36:10;;;;;;;2.05;1.23;;;;;;;7.45;70.08;101105.91;2696651;26;20003;-77
2024/04/10 00:37:23;;;;;;;4.75;1.45;;;;;;;7.44;70.34;101111.97;2697419;26;20032;-77
2024/04/10 00:38:37;;;;;;;3.90;1.70;;;;;;;7.40;70.71;101105.84;2697974;26;19997;-77
2024/04/10 00:39:50;;;;;;;3.17;1.52;;;;;;;7.40;70.39;101108.44;2707485;26;20015;-77
2024/04/10 00:41:05;;;;;;;2.47;1.60;;;;;;;7.39;70.55;101104.13;2701545;26;19997;-77
2024/04/10 00:42:18;;;;;;;6.13;1.92;;;;;;;7.38;70.58;101109.28;2681472;26;19997;-77
2024/04/10 00:43:33;;;;;;;4.25;1.45;;;;;;;7.38;70.83;101117.97;2696961;26;20438;-77
2024/04/10 00:44:51;;;;;;;4.85;1.90;;;;;;;7.36;70.64;101109.28;2696757;26;20012;-77
2024/04/10 00:46:14;;;;;;;4.75;1.95;;;;;;;7.35;70.43;101107.53;2710639;26;20352;-77
2024/04/10 00:47:28;;;;;;;6.90;2.40;;;;;;;7.35;70.56;101111.84;2695838;26;20012;-77
2024/04/10 00:48:42;;;;;;;5.65;1.95;;;;;;;7.33;70.64;101113.53;2704676;26;19996;-77
2024/04/10 00:49:57;;;;;;;5.38;2.03;;;;;;;7.32;70.69;101104.88;2703995;26;20001;-77
2024/04/10 00:51:19;;;;;;;9.65;1.83;;;;;;;7.31;70.53;101102.28;2711401;26;20039;-77
2024/04/10 00:52:35;;;;;;;4.00;1.83;;;;;;;7.30;70.85;101105.72;2702373;26;20008;-77
2024/04/10 00:53:48;;;;;;;3.03;1.60;;;;;;;7.29;70.74;101101.41;2705455;26;19996;-77
2024/04/10 00:55:04;;;;;;;4.35;1.98;;;;;;;7.29;70.67;101106.59;2709588;26;19996;-77
2024/04/10 00:56:17;;;;;;;3.90;1.85;;;;;;;7.27;70.78;101109.16;2698555;26;19993;-77
2024/04/10 00:57:31;;;;;;;5.25;1.67;;;;;;;7.26;70.93;101107.44;2696464;26;20015;-77
2024/04/10 00:58:44;;;;;;;3.67;1.90;;;;;;;7.25;71.05;101110.84;2679491;27;20076;-77
2024/04/10 00:59:57;;;;;;;8.18;2.20;;;;;;;7.23;70.95;101120.38;2690419;26;19997;-77
2024/04/10 01:01:13;;;;;;;4.00;1.60;;;;;;;7.21;71.22;101112.56;2697951;26;20032;-77
2024/04/10 01:02:26;;;;;;;5.60;2.65;;;;;;;7.19;71.10;101116.84;2696665;26;20008;-77
2024/04/10 01:03:39;;;;;;;6.00;1.85;;;;;;;7.17;71.25;101108.16;2682099;26;20017;-77
2024/04/10 01:04:52;;;;;;;3.70;1.77;;;;;;;7.16;71.33;101113.34;2689280;26;20008;-77
2024/04/10 01:06:07;;;;;;;6.15;2.53;;;;;;;7.15;71.46;101109.00;2689969;26;20009;-77
2024/04/10 01:07:20;;;;;;;3.70;2.00;;;;;;;7.14;71.18;101121.09;2687878;26;19997;-77
2024/04/10 01:08:35;;;;;;;6.55;2.03;;;;;;;7.14;71.35;101120.25;2689717;26;20012;-77
2024/04/10 01:09:48;;;;;;;12.40;3.95;;;;;;;7.11;71.19;101117.63;2689440;26;20096;-77
2024/04/10 01:11:04;;;;;;;2.92;1.77;;;;;;;7.10;71.14;101115.84;2689354;26;20015;-77
2024/04/10 01:12:17;;;;;;;16.17;4.78;;;;;;;7.11;71.66;101120.22;2703887;26;20014;-77
2024/04/10 01:13:32;;;;;;;8.48;1.95;;;;;;;7.09;70.97;101116.72;2694864;26;20317;-77
2024/04/10 01:14:45;;;;;;;11.60;2.63;;;;;;;7.09;71.01;101114.13;2698671;26;20417;-76
2024/04/10 01:15:59;;;;;;;2.45;1.73;;;;;;;7.07;71.10;101115.81;2686718;26;20004;-76
2024/04/10 01:17:12;;;;;;;5.22;1.88;;;;;;;7.06;71.34;101117.53;2694573;26;19997;-77
2024/04/10 01:18:25;;;;;;;2.30;1.60;;;;;;;7.06;71.24;101119.28;2694984;26;20014;-77
2024/04/10 01:19:38;;;;;;;4.78;1.88;;;;;;;7.06;71.09;101121.88;2706720;26;20003;-76
2024/04/10 01:20:51;;;;;;;5.32;1.60;;;;;;;7.06;71.33;101114.94;2707641;26;20000;-76
2024/04/10 01:22:05;;;;;;;7.32;4.13;;;;;;;7.05;71.22;101122.69;2707642;26;20389;-77
2024/04/10 01:23:18;;;;;;;2.95;1.70;;;;;;;7.05;71.42;101120.09;2720670;26;20783;-76
2024/04/10 01:24:32;;;;;;;7.35;3.17;;;;;;;7.05;71.18;101127.91;2692888;26;20008;-76
2024/04/10 01:25:45;;;;;;;5.97;2.72;;;;;;;7.04;71.46;101120.97;2698768;26;20000;-76
2024/04/10 01:26:59;;;;;;;6.70;2.83;;;;;;;7.02;70.98;101133.91;2699989;26;19996;-76
2024/04/10 01:28:12;;;;;;;2.55;1.80;;;;;;;7.02;71.09;101143.44;2704345;26;20039;-76
2024/04/10 01:29:25;;;;;;;3.38;1.67;;;;;;;7.01;71.28;101145.16;2722372;26;20345;-76
2024/04/10 01:30:38;;;;;;;5.20;1.75;;;;;;;6.99;71.40;101141.66;2712956;26;20345;-76
2024/04/10 01:31:52;;;;;;;5.00;1.80;;;;;;;6.98;71.37;101143.41;2706954;26;20434;-76
2024/04/10 01:33:05;;;;;;;7.65;1.65;;;;;;;6.98;71.69;101146.00;2702472;26;20403;-76
2024/04/10 01:34:18;;;;;;;4.47;1.92;;;;;;;6.99;71.07;101147.72;2690481;26;20490;-76
2024/04/10 01:35:31;;;;;;;5.43;2.03;;;;;;;6.99;70.96;101146.84;2677271;26;20359;-76
2024/04/10 01:36:44;;;;;;;2.50;1.23;;;;;;;6.99;71.11;101152.03;2677195;26;20008;-76
2024/04/10 01:37:58;;;;;;;7.70;1.80;;;;;;;6.98;71.39;101147.72;2689501;26;20338;-76
2024/04/10 01:39:11;;;;;;;3.63;1.70;;;;;;;6.99;71.17;101149.44;2689217;26;20475;-76
2024/04/10 01:40:27;;;;;;;8.18;1.90;;;;;;;7.00;71.20;101153.81;2688192;26;20001;-76
2024/04/10 01:41:41;;;;;;;6.60;1.88;;;;;;;7.00;70.83;101156.41;2688583;26;20415;-75
2024/04/10 01:42:54;;;;;;;6.43;2.00;;;;;;;7.01;71.21;101157.28;2689250;26;19993;-75
2024/04/10 01:44:07;;;;;;;3.15;1.90;;;;;;;7.02;70.89;101161.59;2688440;26;20012;-75
2024/04/10 01:45:20;;;;;;;4.63;1.75;;;;;;;7.03;70.94;101161.63;2689159;26;20341;-75
2024/04/10 01:46:34;;;;;;;6.82;1.58;;;;;;;7.05;70.90;101164.22;2690155;26;20398;-76
2024/04/10 01:47:47;;;;;;;5.75;2.08;;;;;;;7.07;71.12;101165.13;2688846;26;20377;-75
2024/04/10 01:49:00;;;;;;;4.32;2.15;;;;;;;7.08;71.05;101165.16;2689607;26;20000;-75
2024/04/10 01:50:13;;;;;;;5.32;3.70;;;;;;;7.10;70.98;101168.66;2689674;26;20016;-75
2024/04/10 01:51:26;;;;;;;4.22;1.77;;;;;;;7.13;70.80;101168.69;2691522;26;20396;-75
2024/04/10 01:52:40;;;;;;;4.35;2.67;;;;;;;7.16;70.77;101167.88;2700231;26;20488;-75
2024/04/10 01:53:53;;;;;;;3.13;1.58;;;;;;;7.18;70.97;101168.75;2689862;26;20462;-75
2024/04/10 01:55:07;;;;;;;4.35;1.63;;;;;;;7.21;70.63;101168.81;2689395;26;20805;-75
2024/04/10 01:56:20;;;;;;;4.43;1.92;;;;;;;7.21;70.13;101177.44;2689198;26;20048;-76
2024/04/10 01:57:33;;;;;;;6.80;2.60;;;;;;;7.25;70.23;101182.69;2687692;26;20001;-76
2024/04/10 01:58:46;;;;;;;5.07;3.15;;;;;;;7.24;70.15;101179.22;2688782;26;20438;-75
2024/04/10 02:00:00;;;;;;;5.05;2.60;;;;;;;7.24;69.94;101179.22;2689143;26;20001;-75
2024/04/10 02:01:13;;;;;;;4.68;1.85;;;;;;;7.24;70.52;101186.13;2704073;26;20700;-75
2024/04/10 02:02:26;;;;;;;5.60;2.20;;;;;;;7.23;70.64;101190.47;2689117;26;20074;-76
2024/04/10 02:03:39;;;;;;;7.95;1.67;;;;;;;7.21;70.27;101185.25;2689120;26;20573;-76
2024/04/10 02:04:52;;;;;;;5.93;2.92;;;;;;;7.20;70.15;101186.09;2671509;27;20085;-76
2024/04/10 02:06:06;;;;;;;3.33;1.80;;;;;;;7.22;70.17;101191.28;2660285;27;20043;-76
2024/04/10 02:07:19;;;;;;;2.88;1.80;;;;;;;7.21;70.60;101185.25;2690649;26;20000;-76
2024/04/10 02:08:32;;;;;;;2.50;1.75;;;;;;;7.21;70.54;101189.56;2719517;26;20007;-75
2024/04/10 02:09:45;;;;;;;3.20;1.70;;;;;;;7.21;70.39;101197.34;2706200;26;20402;-75
2024/04/10 02:11:19;;;;;;;8.07;2.08;;;;;;;7.18;70.46;101193.00;2706359;26;20019;-75
2024/04/10 02:12:32;;;;;;;7.18;2.13;;;;;;;7.16;70.71;101199.00;2701587;26;20008;-75
2024/04/10 02:13:46;;;;;;;5.53;1.98;;;;;;;7.16;70.65;101188.63;2689281;26;20008;-76
2024/04/10 02:14:59;;;;;;;7.75;2.13;;;;;;;7.16;70.68;101193.81;2699295;26;20077;-76
2024/04/10 02:16:13;;;;;;;6.55;2.03;;;;;;;7.16;70.81;101199.88;2686361;26;19997;-76
2024/04/10 02:17:26;;;;;;;3.05;2.08;;;;;;;7.17;70.95;101187.75;2704802;26;20008;-77
2024/04/10 02:18:39;;;;;;;4.93;1.88;;;;;;;7.18;70.77;101203.38;2724558;26;20073;-76
2024/04/10 02:19:52;;;;;;;10.40;3.25;;;;;;;7.20;70.69;101205.97;2707791;26;20012;-76
2024/04/10 02:21:06;;;;;;;4.30;3.33;;;;;;;7.22;71.01;101201.69;2701853;26;20010;-76
2024/04/10 02:22:19;;;;;;;6.05;1.73;;;;;;;7.24;71.14;101204.31;2691515;26;20008;-76
2024/04/10 02:23:32;;;;;;;5.63;2.17;;;;;;;7.26;70.93;101208.69;2688764;26;20004;-76
2024/04/10 02:24:45;;;;;;;5.68;2.83;;;;;;;7.29;71.07;101211.31;2688229;26;19997;-76
2024/04/10 02:26:11;;;;;;;6.75;2.08;;;;;;;7.31;70.82;101207.00;2689082;26;20008;-76
2024/04/10 02:27:24;;;;;;;3.10;2.80;;;;;;;7.34;70.88;101211.38;2687223;26;20504;-76
2024/04/10 02:28:37;;;;;;;7.15;2.72;;;;;;;7.37;70.87;101217.47;2693855;26;20026;-76
2024/04/10 02:29:50;;;;;;;3.72;1.92;;;;;;;7.40;71.11;101219.25;2697609;26;20012;-76
2024/04/10 02:31:04;;;;;;;7.55;2.38;;;;;;;7.42;70.69;101220.13;2706102;26;20070;-76
2024/04/10 02:32:17;;;;;;;3.67;1.67;;;;;;;7.44;70.54;101221.03;2690313;26;20001;-76
2024/04/10 02:33:35;;;;;;;7.13;3.08;;;;;;;7.48;70.75;101216.75;2688925;26;20013;-75
2024/04/10 02:34:48;;;;;;;3.47;1.77;;;;;;;7.49;70.62;101211.59;2671169;27;20016;-76
2024/04/10 02:36:03;;;;;;;5.00;2.05;;;;;;;7.52;70.23;101218.53;2660012;26;20818;-76
2024/04/10 02:37:16;;;;;;;4.60;1.83;;;;;;;7.54;70.69;101211.66;2688095;26;20000;-76
2024/04/10 02:38:30;;;;;;;6.70;1.85;;;;;;;7.56;70.32;101215.13;2677607;26;19997;-76
2024/04/10 02:39:43;;;;;;;7.95;2.88;;;;;;;7.59;70.27;101228.13;2682154;26;20015;-76
2024/04/10 02:40:56;;;;;;;9.98;3.20;;;;;;;7.61;70.70;101229.03;2716266;26;20010;-76
2024/04/10 02:42:09;;;;;;;5.47;1.73;;;;;;;7.62;69.67;101225.59;2711028;26;20050;-76
2024/04/10 02:43:23;;;;;;;9.15;2.75;;;;;;;7.64;69.60;101239.47;2705381;26;19997;-76
2024/04/10 02:44:36;;;;;;;4.07;1.70;;;;;;;7.64;69.77;101235.16;2711104;26;20056;-76
2024/04/10 02:46:02;;;;;;;4.47;2.08;;;;;;;7.67;69.75;101229.13;2716705;26;20032;-76
2024/04/10 02:47:16;;;;;;;5.28;2.90;;;;;;;7.67;69.53;101242.13;2706670;26;20049;-76
2024/04/10 02:48:29;;;;;;;4.20;2.28;;;;;;;7.68;69.60;101236.06;2708689;26;20031;-77
2024/04/10 02:49:42;;;;;;;5.13;2.10;;;;;;;7.71;69.19;101250.81;2705771;26;20010;-76
2024/04/10 02:50:56;;;;;;;6.63;2.25;;;;;;;7.72;69.53;101243.06;2706406;26;20007;-77
2024/04/10 02:52:09;;;;;;;4.45;2.13;;;;;;;7.73;69.53;101252.59;2705461;26;20047;-76
2024/04/10 02:53:23;;;;;;;5.90;2.05;;;;;;;7.73;69.11;101249.97;2720239;26;20357;-76
2024/04/10 02:54:36;;;;;;;9.35;2.05;;;;;;;7.75;69.17;101237.03;2705894;26;19992;-76
2024/04/10 02:55:50;;;;;;;6.45;2.00;;;;;;;7.76;68.98;101243.94;2705641;26;20014;-75
2024/04/10 02:57:04;;;;;;;5.82;2.13;;;;;;;7.78;68.95;101248.31;2706815;26;20475;-75
2024/04/10 02:58:17;;;;;;;3.47;1.75;;;;;;;7.80;68.69;101245.75;2706535;26;20000;-76
2024/04/10 02:59:31;;;;;;;3.88;1.58;;;;;;;7.82;68.72;101247.50;2708655;26;19993;-76
2024/04/10 03:00:53;;;;;;;4.10;2.20;;;;;;;7.83;68.26;101245.78;2716945;26;20384;-76
2024/04/10 03:02:07;;;;;;;8.80;2.78;;;;;;;7.85;68.01;101251.88;2705250;26;20768;-77
2024/04/10 03:03:21;;;;;;;5.30;1.70;;;;;;;7.86;67.71;101246.69;2705215;26;20011;-76
2024/04/10 03:04:35;;;;;;;4.40;1.80;;;;;;;7.88;67.51;101256.25;2705212;26;20050;-76
2024/04/10 03:06:03;;;;;;;4.63;1.67;;;;;;;7.88;67.81;101246.72;2719660;26;20006;-77
2024/04/10 03:07:16;;;;;;;10.02;3.90;;;;;;;7.89;67.50;101252.78;2691654;26;20005;-77
2024/04/10 03:08:33;;;;;;;7.75;3.03;;;;;;;7.89;67.62;101252.78;2697213;26;20015;-77
2024/04/10 03:09:46;;;;;;;7.50;4.10;;;;;;;7.89;67.36;101250.16;2708821;26;20000;-77
2024/04/10 03:10:59;;;;;;;4.90;1.70;;;;;;;7.92;67.27;101245.88;2706084;26;19996;-77
2024/04/10 03:12:13;;;;;;;4.78;2.13;;;;;;;7.95;67.46;101256.31;2693717;26;20448;-76
2024/04/10 03:13:27;;;;;;;5.55;2.50;;;;;;;7.96;67.51;101252.00;2687640;26;20011;-76
2024/04/10 03:14:42;;;;;;;6.15;1.83;;;;;;;7.97;67.42;101249.41;2677117;26;20413;-77
2024/04/10 03:15:55;;;;;;;5.07;2.08;;;;;;;7.97;67.05;101256.31;2677137;26;20005;-76
2024/04/10 03:17:11;;;;;;;5.40;2.47;;;;;;;7.97;66.85;101253.72;2682782;26;20048;-76
2024/04/10 03:18:24;;;;;;;7.97;2.47;;;;;;;7.98;66.85;101256.34;2688313;26;19997;-76
2024/04/10 03:19:38;;;;;;;4.30;1.80;;;;;;;7.99;66.91;101255.50;2692737;26;20004;-76
2024/04/10 03:20:51;;;;;;;3.17;1.75;;;;;;;8.01;67.08;101252.91;2705509;26;20383;-76
2024/04/10 03:22:04;;;;;;;4.68;2.05;;;;;;;8.02;67.01;101257.25;2705932;26;20105;-77
2024/04/10 03:23:17;;;;;;;10.07;2.13;;;;;;;8.03;66.86;101265.09;2694016;26;20047;-77
2024/04/10 03:24:31;;;;;;;7.13;1.83;;;;;;;8.01;67.37;101271.13;2702908;26;20069;-76
2024/04/10 03:25:44;;;;;;;8.73;2.33;;;;;;;7.99;66.93;101265.03;2689324;26;20008;-76
2024/04/10 03:26:57;;;;;;;4.05;2.22;;;;;;;7.99;67.14;101270.22;2686694;26;20029;-77
2024/04/10 03:28:10;;;;;;;11.05;1.90;;;;;;;7.96;66.89;101263.25;2700480;26;19996;-77
2024/04/10 03:29:23;;;;;;;6.45;1.88;;;;;;;7.96;66.95;101267.59;2689832;26;20000;-76
2024/04/10 03:30:37;;;;;;;6.50;2.15;;;;;;;7.93;67.06;101262.34;2692522;26;20793;-76
2024/04/10 03:31:50;;;;;;;7.90;2.03;;;;;;;7.92;67.09;101264.06;2696999;26;20001;-76
2024/04/10 03:33:03;;;;;;;7.22;2.85;;;;;;;7.90;67.08;101270.09;2688249;26;20015;-77
2024/04/10 03:34:17;;;;;;;7.82;2.13;;;;;;;7.84;67.24;101263.97;2689082;26;20468;-76
2024/04/10 03:35:30;;;;;;;7.60;2.40;;;;;;;7.82;66.89;101267.41;2701858;26;20054;-77
2024/04/10 03:36:44;;;;;;;6.35;2.00;;;;;;;7.77;66.76;101262.16;2694226;26;20000;-77
2024/04/10 03:37:57;;;;;;;7.88;2.28;;;;;;;7.73;67.02;101272.50;2697455;26;20439;-76
2024/04/10 03:39:11;;;;;;;4.65;1.67;;;;;;;7.68;67.00;101269.84;2689347;26;19997;-76
2024/04/10 03:40:24;;;;;;;8.30;2.33;;;;;;;7.63;66.97;101268.91;2701892;26;20086;-76
2024/04/10 03:41:38;;;;;;;9.07;2.47;;;;;;;7.60;67.24;101274.06;2676711;26;20012;-77
2024/04/10 03:42:53;;;;;;;7.97;2.20;;;;;;;7.55;67.40;101265.34;2676873;26;20416;-77
2024/04/10 03:44:06;;;;;;;1.80;1.30;;;;;;;7.50;67.39;101273.06;2680972;26;20549;-76
2024/04/10 03:45:20;;;;;;;8.48;3.30;;;;;;;7.45;67.46;101269.50;2702796;26;20000;-76
2024/04/10 03:46:33;;;;;;;9.75;2.00;;;;;;;7.40;68.01;101272.03;2719772;26;20015;-76
2024/04/10 03:47:46;;;;;;;13.68;6.15;;;;;;;7.36;67.98;101275.47;2704505;26;20003;-76
2024/04/10 03:49:00;;;;;;;6.55;2.15;;;;;;;7.33;68.06;101272.84;2696594;26;20011;-76
2024/04/10 03:50:14;;;;;;;6.78;1.92;;;;;;;7.27;68.32;101275.31;2688800;26;20007;-76
2024/04/10 03:51:27;;;;;;;5.95;2.63;;;;;;;7.23;68.56;101276.13;2701039;26;20430;-75
2024/04/10 03:52:40;;;;;;;9.77;2.40;;;;;;;7.18;68.83;101281.25;2676604;26;20012;-76
2024/04/10 03:53:54;;;;;;;5.25;1.60;;;;;;;7.14;68.88;101274.25;2689027;26;20527;-76
2024/04/10 03:55:07;;;;;;;3.85;1.38;;;;;;;7.09;69.45;101282.81;2699064;26;20012;-76
2024/04/10 03:56:20;;;;;;;5.28;2.13;;;;;;;7.07;69.32;101287.13;2690690;26;20045;-76
2024/04/10 03:57:33;;;;;;;7.43;2.60;;;;;;;7.04;69.34;101292.25;2702104;26;20008;-76
2024/04/10 03:58:49;;;;;;;3.63;2.10;;;;;;;7.00;69.51;101293.94;2688628;26;20001;-76
2024/04/10 04:00:05;;;;;;;4.97;2.42;;;;;;;6.96;69.42;101295.59;2688194;26;20016;-76
2024/04/10 04:01:18;;;;;;;5.78;1.73;;;;;;;6.92;70.02;101301.59;2687900;26;19997;-76
2024/04/10 04:02:34;;;;;;;12.15;2.88;;;;;;;6.92;69.99;101308.53;2688070;26;20056;-75
2024/04/10 04:03:47;;;;;;;4.72;2.22;;;;;;;6.90;70.27;101311.06;2688541;26;20020;-75
2024/04/10 04:05:00;;;;;;;4.53;1.88;;;;;;;6.87;70.29;101313.63;2688338;26;20016;-75
2024/04/10 04:06:13;;;;;;;7.82;2.25;;;;;;;6.84;70.55;101316.16;2687750;26;20022;-75
2024/04/10 04:07:26;;;;;;;4.68;2.72;;;;;;;6.82;70.36;101322.19;2688729;26;20071;-76
2024/04/10 04:08:41;;;;;;;4.65;1.83;;;;;;;6.77;70.62;101324.69;2701762;26;20011;-76
2024/04/10 04:09:54;;;;;;;7.55;2.60;;;;;;;6.73;70.44;101322.88;2697094;26;20341;-76
2024/04/10 04:11:07;;;;;;;3.55;2.08;;;;;;;6.69;71.03;101323.69;2695086;26;20170;-76
2024/04/10 04:12:20;;;;;;;4.13;1.60;;;;;;;6.64;70.61;101323.59;2688261;26;20020;-75
2024/04/10 04:13:34;;;;;;;5.07;2.53;;;;;;;6.60;70.72;101329.56;2691928;26;20098;-75
2024/04/10 04:14:47;;;;;;;5.65;2.13;;;;;;;6.56;71.13;101335.56;2700152;26;20001;-75
2024/04/10 04:16:00;;;;;;;5.38;2.33;;;;;;;6.52;71.57;101332.00;2697584;26;20008;-75
2024/04/10 04:17:13;;;;;;;3.70;2.00;;;;;;;6.49;70.95;101331.94;2693304;26;20001;-75
2024/04/10 04:18:27;;;;;;;6.28;3.22;;;;;;;6.46;71.60;101334.50;2688688;26;20005;-75
2024/04/10 04:19:40;;;;;;;6.57;3.40;;;;;;;6.44;71.76;101336.19;2688341;26;20343;-75
2024/04/10 04:20:53;;;;;;;8.02;2.13;;;;;;;6.42;71.52;101347.38;2688514;26;20005;-75
2024/04/10 04:22:06;;;;;;;4.60;2.70;;;;;;;6.39;71.74;101342.13;2687671;26;20106;-75
2024/04/10 04:23:20;;;;;;;7.05;2.90;;;;;;;6.38;71.40;101345.56;2688193;26;20722;-75
2024/04/10 04:24:33;;;;;;;5.88;2.33;;;;;;;6.36;71.82;101348.13;2704764;26;20019;-75
2024/04/10 04:25:46;;;;;;;5.95;2.70;;;;;;;6.33;72.10;101345.47;2704918;26;20000;-75
2024/04/10 04:27:00;;;;;;;5.25;1.88;;;;;;;6.30;71.96;101350.59;2705094;26;20004;-75
2024/04/10 04:28:13;;;;;;;4.90;1.98;;;;;;;6.27;71.65;101347.94;2705027;26;20368;-75
2024/04/10 04:29:27;;;;;;;5.43;2.70;;;;;;;6.24;72.36;101353.91;2706085;26;20000;-74
2024/04/10 04:30:47;;;;;;;7.47;3.10;;;;;;;6.21;71.97;101353.88;2706323;26;20015;-74
2024/04/10 04:32:00;;;;;;;4.60;1.88;;;;;;;6.17;72.01;101357.25;2704583;26;20008;-74
2024/04/10 04:33:14;;;;;;;4.30;2.22;;;;;;;6.14;72.21;101357.16;2705160;26;20001;-74
2024/04/10 04:34:27;;;;;;;5.65;2.15;;;;;;;6.11;72.36;101357.09;2694733;26;20381;-75
2024/04/10 04:35:41;;;;;;;12.98;2.80;;;;;;;6.08;72.40;101357.91;2717005;26;20045;-75
2024/04/10 04:36:54;;;;;;;6.90;3.00;;;;;;;6.08;72.27;101357.91;2704982;26;19996;-74
2024/04/10 04:38:08;;;;;;;10.95;3.17;;;;;;;6.08;72.73;101370.88;2705476;26;20449;-74
2024/04/10 04:39:21;;;;;;;6.88;2.30;;;;;;;6.07;72.36;101370.84;2706077;26;20024;-75
2024/04/10 04:40:34;;;;;;;4.35;2.60;;;;;;;6.05;72.73;101375.13;2707463;26;20052;-75
2024/04/10 04:41:47;;;;;;;10.85;2.60;;;;;;;6.03;72.51;101371.63;2707919;26;20538;-75
2024/04/10 04:43:10;;;;;;;8.43;2.85;;;;;;;6.02;72.64;101381.13;2707813;26;20008;-75
2024/04/10 04:44:23;;;;;;;3.95;2.00;;;;;;;6.00;72.93;101377.63;2705515;26;20461;-75
2024/04/10 04:45:40;;;;;;;5.32;2.47;;;;;;;5.99;73.00;101373.28;2706691;26;20011;-75
2024/04/10 04:46:53;;;;;;;9.95;3.08;;;;;;;5.98;72.51;101378.44;2706381;26;20004;-74
2024/04/10 04:48:08;;;;;;;11.20;2.53;;;;;;;5.97;73.24;101374.09;2706527;26;20442;-75
2024/04/10 04:49:21;;;;;;;4.70;2.33;;;;;;;5.96;72.68;101374.91;2706953;26;20008;-74
2024/04/10 04:50:35;;;;;;;8.98;2.53;;;;;;;5.97;72.92;101377.56;2720986;26;20003;-74
2024/04/10 04:51:48;;;;;;;6.05;2.40;;;;;;;5.96;73.21;101377.50;2700957;26;20040;-74
2024/04/10 04:53:01;;;;;;;7.50;2.45;;;;;;;5.95;73.30;101381.81;2715242;26;20426;-74
2024/04/10 04:54:14;;;;;;;6.97;2.28;;;;;;;5.95;72.79;101381.81;2707355;26;20692;-74
2024/04/10 04:55:27;;;;;;;13.18;3.60;;;;;;;5.95;72.96;101383.53;2719901;26;19999;-74
2024/04/10 04:56:41;;;;;;;8.60;3.55;;;;;;;5.95;72.82;101388.72;2675647;26;20012;-74
2024/04/10 04:57:54;;;;;;;5.68;2.97;;;;;;;5.95;73.33;101386.13;2676458;26;20353;-74
2024/04/10 04:59:09;;;;;;;10.07;2.80;;;;;;;5.96;73.21;101387.88;2689592;26;20001;-74
2024/04/10 05:00:23;;;;;;;8.80;2.60;;;;;;;5.95;73.22;101391.31;2688194;26;20489;-74
2024/04/10 05:01:36;;;;;;;5.93;2.40;;;;;;;5.94;73.42;101390.44;2712533;26;20010;-74
2024/04/10 05:02:49;;;;;;;7.88;2.58;;;;;;;5.93;73.02;101386.06;2718719;26;20004;-75
2024/04/10 05:05:34;;;;;;;9.23;2.38;;;;;;;5.94;73.37;101394.72;2706576;26;20070;-74
2024/04/10 05:06:48;;;;;;;8.80;2.72;;;;;;;5.96;73.24;101399.09;2700595;26;20096;-74
2024/04/10 05:08:01;;;;;;;11.50;3.00;;;;;;;5.97;73.04;101392.22;2688833;26;20008;-74
2024/04/10 05:09:15;;;;;;;7.25;4.00;;;;;;;5.98;73.23;101394.84;2690092;26;19997;-74
2024/04/10 05:10:28;;;;;;;6.38;2.35;;;;;;;5.98;73.12;101392.25;2689308;26;19997;-74
2024/04/10 05:11:41;;;;;;;5.07;2.20;;;;;;;5.98;72.88;101393.97;2688767;26;20001;-74
2024/04/10 05:12:56;;;;;;;6.80;2.20;;;;;;;5.98;73.05;101400.03;2697349;26;20380;-75
2024/04/10 05:14:09;;;;;;;8.30;2.28;;;;;;;5.97;72.96;101395.69;2706783;26;19992;-74
2024/04/10 05:15:22;;;;;;;3.63;2.13;;;;;;;5.97;73.42;101395.69;2692295;26;20001;-74
2024/04/10 05:16:36;;;;;;;9.38;3.80;;;;;;;5.98;73.08;101405.19;2689441;26;19993;-75
2024/04/10 05:17:51;;;;;;;4.43;2.45;;;;;;;5.99;73.19;101396.59;2689474;26;19997;-75
2024/04/10 05:19:06;;;;;;;9.88;3.15;;;;;;;6.00;73.30;101395.75;2689376;26;20013;-75
2024/04/10 05:20:19;;;;;;;5.38;2.47;;;;;;;6.01;73.37;101394.91;2702147;26;20000;-75
2024/04/10 05:21:32;;;;;;;11.40;2.80;;;;;;;6.02;73.52;101393.22;2691101;26;20033;-75
2024/04/10 05:22:46;;;;;;;9.20;2.80;;;;;;;6.05;73.66;101401.03;2701753;26;20075;-75
2024/04/10 05:23:59;;;;;;;8.40;2.40;;;;;;;6.06;73.05;101390.69;2697483;26;20604;-75
2024/04/10 05:25:12;;;;;;;8.05;3.13;;;;;;;6.07;73.52;101402.81;2707780;26;20419;-75
2024/04/10 05:26:25;;;;;;;10.60;3.22;;;;;;;6.09;73.65;101401.16;2691563;26;20464;-75
2024/04/10 05:27:39;;;;;;;4.28;2.38;;;;;;;6.11;73.03;101399.44;2702981;26;20008;-74
2024/04/10 05:28:52;;;;;;;5.03;2.63;;;;;;;6.16;73.25;101407.31;2689822;26;20055;-74
2024/04/10 05:30:07;;;;;;;6.50;2.72;;;;;;;6.18;72.93;101399.59;2690093;26;20016;-74
2024/04/10 05:31:20;;;;;;;6.32;3.60;;;;;;;6.20;73.03;101413.47;2701505;26;20008;-75
2024/04/10 05:32:34;;;;;;;9.75;3.92;;;;;;;6.21;72.79;101410.88;2690083;26;20009;-74
2024/04/10 05:33:51;;;;;;;11.82;2.72;;;;;;;6.22;73.36;101423.03;2694385;26;20037;-74
2024/04/10 05:35:09;;;;;;;7.45;3.33;;;;;;;6.22;73.05;101424.72;2706813;26;20007;-74
2024/04/10 05:36:23;;;;;;;15.90;3.67;;;;;;;6.22;73.00;101424.72;2692355;26;20008;-74
2024/04/10 05:37:37;;;;;;;10.77;2.70;;;;;;;6.23;72.78;101429.94;2703042;26;20000;-74
2024/04/10 05:38:50;;;;;;;8.48;2.20;;;;;;;6.25;72.71;101427.41;2695570;26;20580;-74
2024/04/10 05:40:09;;;;;;;8.30;3.47;;;;;;;6.26;72.72;101429.13;2696162;26;20001;-74
2024/04/10 05:41:22;;;;;;;7.60;2.03;;;;;;;6.27;73.08;101433.47;2692258;26;19997;-74
2024/04/10 05:42:36;;;;;;;9.10;3.10;;;;;;;6.29;72.48;101436.97;2689845;26;20001;-74
2024/04/10 05:43:50;;;;;;;4.13;2.97;;;;;;;6.30;72.69;101443.94;2695348;26;20019;-74
2024/04/10 05:45:04;;;;;;;8.80;3.08;;;;;;;6.31;72.96;101450.84;2698229;26;20083;-74
2024/04/10 05:46:17;;;;;;;6.70;2.58;;;;;;;6.32;72.55;101448.31;2688696;26;19997;-74
2024/04/10 05:47:31;;;;;;;6.07;1.98;;;;;;;6.36;72.53;101451.81;2687813;26;20016;-74
2024/04/10 05:48:44;;;;;;;5.78;3.20;;;;;;;6.37;72.86;101448.38;2689866;26;20009;-74